Ingelmunster, Belgium
Current Conditions -  °F | °C
As of 3:30 PM on Friday 28 Nov 2014 (Local Time) from LFQQ Reporting Station
Clear Clear  
Wind Chill: 57°   Ceiling: Unl
Heat Index: 57°   Visibility: 6mi
Dew Point: 48°   Wind: 8mph
Humidity: 72%   Direction: 70°ENE
Pressure: 29.62"   Gusts: NA
Location:  50.92°N, 3.26°E
Report Text: LFQQ 281430Z 07007KT CAVOK 14/09 Q1003 NOSIG
Loading
Personal Weather Stations






























Interactive Weather Map New forecast layout! Learn more

10-Day Weather Forecast

Advertisements
Track Severe Weather on mobile